createdAt,value
2023-05-21T00:01:18.281Z,2.60
2023-05-21T00:03:46.282Z,2.55
2023-05-21T00:06:16.127Z,2.60
2023-05-21T00:08:44.042Z,2.70
2023-05-21T00:11:10.965Z,2.30
2023-05-21T00:13:38.606Z,2.30
2023-05-21T00:16:05.729Z,2.50
2023-05-21T00:18:34.283Z,2.60
2023-05-21T00:21:01.792Z,2.30
2023-05-21T00:23:29.017Z,2.38
2023-05-21T00:25:56.317Z,2.50
2023-05-21T00:28:22.985Z,2.30
2023-05-21T00:30:49.765Z,2.33
2023-05-21T00:33:16.521Z,2.83
2023-05-21T00:35:43.277Z,2.47
2023-05-21T00:38:10.030Z,2.53
2023-05-21T00:40:36.800Z,2.40
2023-05-21T00:43:03.711Z,2.42
2023-05-21T00:45:30.497Z,2.60
2023-05-21T00:47:57.794Z,2.60
2023-05-21T00:50:24.637Z,2.80
2023-05-21T00:52:51.795Z,2.58
2023-05-21T00:55:18.441Z,2.50
2023-05-21T00:57:46.085Z,2.60
2023-05-21T01:00:14.793Z,2.38
2023-05-21T01:02:42.405Z,2.90
2023-05-21T01:05:10.698Z,2.67
2023-05-21T01:07:39.895Z,2.75
2023-05-21T01:10:08.535Z,2.60
2023-05-21T01:12:40.850Z,2.40
2023-05-21T01:15:10.820Z,2.47
2023-05-21T01:17:39.134Z,2.42
2023-05-21T01:20:10.443Z,2.90
2023-05-21T01:22:42.704Z,2.50
2023-05-21T01:25:10.762Z,2.70
2023-05-21T01:27:37.458Z,2.53
2023-05-21T01:30:05.326Z,2.65
2023-05-21T01:32:37.986Z,2.45
2023-05-21T01:35:07.068Z,2.22
2023-05-21T01:37:59.386Z,2.70
2023-05-21T01:40:28.425Z,2.65
2023-05-21T01:42:55.905Z,3.00
2023-05-21T01:45:24.220Z,2.80
2023-05-21T01:47:53.929Z,2.55
2023-05-21T01:50:24.550Z,2.65
2023-05-21T01:53:01.147Z,2.80
2023-05-21T01:55:30.766Z,2.78
2023-05-21T01:58:00.017Z,2.90
2023-05-21T02:00:29.440Z,2.88
2023-05-21T02:02:56.444Z,3.08
2023-05-21T02:05:23.350Z,2.45
2023-05-21T02:07:52.002Z,2.90
2023-05-21T02:10:19.267Z,2.58
2023-05-21T02:12:46.259Z,2.83
2023-05-21T02:15:18.142Z,3.08
2023-05-21T02:17:46.555Z,3.00
2023-05-21T02:20:13.830Z,3.03
2023-05-21T02:22:41.792Z,2.92
2023-05-21T02:25:09.640Z,2.95
2023-05-21T02:27:37.642Z,3.25
2023-05-21T02:30:06.870Z,2.78
2023-05-21T02:32:35.110Z,3.17
2023-05-21T02:35:03.967Z,3.25
2023-05-21T02:37:34.511Z,3.30
2023-05-21T02:40:04.187Z,3.33
2023-05-21T02:42:31.007Z,3.50
2023-05-21T02:45:02.290Z,3.40
2023-05-21T02:47:29.441Z,3.60
2023-05-21T02:50:00.327Z,3.47
2023-05-21T02:52:27.535Z,3.92
2023-05-21T02:54:54.352Z,3.72
2023-05-21T02:57:21.214Z,3.63
2023-05-21T02:59:48.187Z,4.35
2023-05-21T03:02:14.947Z,3.40
2023-05-21T03:04:46.097Z,3.60
2023-05-21T03:07:14.610Z,3.60
2023-05-21T03:09:42.156Z,3.85
2023-05-21T03:12:11.044Z,3.80
2023-05-21T03:14:38.070Z,3.80
2023-05-21T03:17:06.181Z,3.88
2023-05-21T03:19:35.805Z,3.10
2023-05-21T03:22:04.501Z,3.85
2023-05-21T03:24:34.373Z,4.30
2023-05-21T03:27:02.320Z,4.28
2023-05-21T03:29:29.200Z,4.25
2023-05-21T03:31:56.859Z,4.22
2023-05-21T03:34:24.076Z,4.03
2023-05-21T03:36:51.157Z,4.50
2023-05-21T03:39:18.926Z,4.55
2023-05-21T03:41:45.692Z,4.20
2023-05-21T03:44:20.469Z,4.53
2023-05-21T03:46:53.157Z,4.28
2023-05-21T03:49:26.799Z,4.47
2023-05-21T03:51:56.170Z,4.55
2023-05-21T03:54:23.864Z,4.65
2023-05-21T03:56:53.708Z,4.82
2023-05-21T03:59:20.764Z,4.38
2023-05-21T04:01:47.932Z,4.55
2023-05-21T04:04:16.958Z,4.63
2023-05-21T04:06:46.200Z,4.47
2023-05-21T04:09:13.101Z,4.72
2023-05-21T04:11:39.890Z,4.82
2023-05-21T04:14:06.638Z,4.82
2023-05-21T04:16:35.487Z,4.50
2023-05-21T04:19:03.684Z,4.82
2023-05-21T04:21:32.213Z,4.35
2023-05-21T04:24:00.740Z,4.18
2023-05-21T04:26:42.381Z,4.57
2023-05-21T04:29:10.064Z,3.90
2023-05-21T04:31:36.903Z,4.20
2023-05-21T04:34:05.006Z,4.22
2023-05-21T04:36:31.968Z,4.50
2023-05-21T04:38:58.676Z,4.82
2023-05-21T04:41:25.355Z,4.40
2023-05-21T04:43:55.389Z,4.45
2023-05-21T04:46:26.821Z,4.43
2023-05-21T04:48:56.975Z,4.43
2023-05-21T04:51:27.062Z,5.03
2023-05-21T04:53:58.116Z,4.07
2023-05-21T04:56:27.845Z,4.22
2023-05-21T04:58:54.570Z,4.20
2023-05-21T05:01:27.266Z,4.93
2023-05-21T05:03:54.242Z,4.35
2023-05-21T05:06:21.595Z,4.70
2023-05-21T05:08:51.089Z,4.72
2023-05-21T05:11:17.816Z,4.40
2023-05-21T05:13:44.587Z,4.60
2023-05-21T05:16:11.357Z,4.38
2023-05-21T05:18:41.547Z,3.72
2023-05-21T05:21:08.418Z,4.57
2023-05-21T05:23:35.185Z,4.40
2023-05-21T05:26:01.881Z,5.00
2023-05-21T05:28:28.757Z,4.85
2023-05-21T05:30:55.589Z,4.70
2023-05-21T05:33:24.827Z,4.70
2023-05-21T05:35:55.061Z,4.90
2023-05-21T05:38:22.198Z,5.10
2023-05-21T05:40:48.931Z,4.25
2023-05-21T05:43:16.652Z,6.03
2023-05-21T05:45:43.835Z,5.00
2023-05-21T05:48:13.957Z,5.45
2023-05-21T05:50:44.370Z,4.80
2023-05-21T05:53:13.378Z,4.95
2023-05-21T05:55:40.876Z,4.50
2023-05-21T05:58:07.801Z,5.25
2023-05-21T06:00:46.935Z,4.88
2023-05-21T06:03:14.039Z,5.28
2023-05-21T06:05:42.194Z,5.57
2023-05-21T06:08:08.937Z,4.55
2023-05-21T06:10:35.593Z,7.10
2023-05-21T06:13:03.690Z,5.72
2023-05-21T06:15:33.542Z,5.45
2023-05-21T06:18:00.532Z,5.90
2023-05-21T06:20:30.374Z,5.60
2023-05-21T06:22:57.330Z,5.68
2023-05-21T06:25:25.728Z,5.63
2023-05-21T06:27:52.442Z,5.47
2023-05-21T06:30:27.232Z,5.15
2023-05-21T06:32:56.289Z,5.18
2023-05-21T06:35:23.822Z,5.63
2023-05-21T06:37:50.491Z,5.72
2023-05-21T06:40:17.191Z,5.50
2023-05-21T06:42:45.835Z,6.18
2023-05-21T06:45:21.779Z,6.25
2023-05-21T06:47:51.756Z,5.32
2023-05-21T06:50:18.816Z,6.25
2023-05-21T06:52:45.630Z,5.75
2023-05-21T06:55:13.008Z,6.05
2023-05-21T06:57:58.877Z,6.93
2023-05-21T07:00:25.837Z,6.90
2023-05-21T07:02:53.571Z,6.43
2023-05-21T07:05:20.558Z,7.03
2023-05-21T07:07:50.032Z,7.32
2023-05-21T07:10:16.789Z,6.70
2023-05-21T07:12:43.570Z,6.35
2023-05-21T07:15:10.952Z,7.18
2023-05-21T07:17:38.931Z,7.32
2023-05-21T07:20:08.780Z,6.90
2023-05-21T07:22:42.970Z,7.25
2023-05-21T07:25:13.428Z,6.93
2023-05-21T07:27:40.207Z,7.80
2023-05-21T07:30:07.948Z,7.63
2023-05-21T07:32:35.256Z,8.38
2023-05-21T07:35:02.137Z,7.60
2023-05-21T07:37:30.740Z,7.90
2023-05-21T07:40:01.019Z,7.18
2023-05-21T07:42:28.279Z,8.40
2023-05-21T07:44:56.800Z,7.88
2023-05-21T07:47:25.696Z,7.75
2023-05-21T07:49:52.475Z,7.93
2023-05-21T07:52:19.343Z,7.43
2023-05-21T07:54:46.106Z,7.78
2023-05-21T07:57:13.006Z,9.00
2023-05-21T07:59:48.773Z,8.13
2023-05-21T08:02:15.758Z,8.82
2023-05-21T08:04:43.225Z,8.25
2023-05-21T08:07:10.735Z,8.82
2023-05-21T08:09:37.538Z,8.60
2023-05-21T08:12:04.914Z,9.20
2023-05-21T08:14:32.063Z,10.63
2023-05-21T08:16:59.767Z,9.13
2023-05-21T08:19:26.451Z,9.85
2023-05-21T08:21:53.394Z,9.10
2023-05-21T08:24:21.899Z,9.55
2023-05-21T08:26:50.653Z,10.07
2023-05-21T08:29:18.162Z,9.93
2023-05-21T08:31:45.219Z,9.52
2023-05-21T08:34:12.206Z,9.60
2023-05-21T08:36:49.955Z,9.77
2023-05-21T08:39:37.040Z,10.90
2023-05-21T08:42:36.534Z,10.27
2023-05-21T08:45:06.716Z,11.05
2023-05-21T08:47:36.032Z,9.88
2023-05-21T08:50:08.629Z,10.75
2023-05-21T08:52:35.437Z,8.70
2023-05-21T08:55:04.525Z,10.65
2023-05-21T08:57:35.237Z,10.82
2023-05-21T09:00:04.730Z,10.93
2023-05-21T09:02:35.395Z,10.73
2023-05-21T09:05:04.466Z,11.13
2023-05-21T09:07:34.491Z,11.20
2023-05-21T09:10:19.932Z,10.32
2023-05-21T09:12:48.880Z,10.85
2023-05-21T09:15:15.779Z,10.30
2023-05-21T09:17:42.624Z,10.43
2023-05-21T09:20:32.380Z,10.57
2023-05-21T09:23:08.028Z,10.05
2023-05-21T09:25:38.139Z,10.00
2023-05-21T09:28:15.825Z,12.07
2023-05-21T09:30:47.268Z,11.40
2023-05-21T09:33:26.202Z,11.57
2023-05-21T09:35:53.470Z,11.07
2023-05-21T09:38:22.994Z,12.63
2023-05-21T09:40:49.751Z,12.18
2023-05-21T09:43:17.935Z,13.75
2023-05-21T09:45:58.945Z,12.88
2023-05-21T09:48:42.041Z,12.32
2023-05-21T09:51:19.548Z,10.85
2023-05-21T09:53:54.462Z,11.15
2023-05-21T09:56:26.530Z,10.85
2023-05-21T09:58:57.588Z,10.30
2023-05-21T10:01:25.057Z,10.75
2023-05-21T10:03:56.939Z,10.07
2023-05-21T10:06:29.822Z,9.75
2023-05-21T10:08:59.133Z,9.70
2023-05-21T10:11:27.416Z,8.50
2023-05-21T10:14:09.113Z,9.00
2023-05-21T10:16:37.523Z,8.25
2023-05-21T10:19:10.857Z,8.18
2023-05-21T10:21:39.951Z,9.23
2023-05-21T10:24:08.504Z,9.43
2023-05-21T10:26:36.321Z,8.65
2023-05-21T10:29:03.413Z,9.10
2023-05-21T10:31:30.199Z,8.63
2023-05-21T10:33:57.267Z,8.80
2023-05-21T10:36:31.826Z,8.50
2023-05-21T10:39:00.660Z,7.63
2023-05-21T10:41:32.127Z,7.78
2023-05-21T10:44:30.977Z,8.25
2023-05-21T10:47:24.003Z,8.57
2023-05-21T10:50:17.894Z,8.65
2023-05-21T10:53:09.953Z,7.70
2023-05-21T10:55:43.484Z,8.52
2023-05-21T10:58:38.118Z,8.43
2023-05-21T11:01:05.809Z,9.20
2023-05-21T11:03:36.686Z,8.68
2023-05-21T11:06:11.465Z,7.63
2023-05-21T11:08:39.014Z,8.95
2023-05-21T11:11:06.204Z,8.13
2023-05-21T11:13:49.078Z,9.05
2023-05-21T11:16:16.910Z,8.98
2023-05-21T11:18:46.487Z,9.00
2023-05-21T11:21:17.955Z,8.57
2023-05-21T11:23:50.861Z,8.50
2023-05-21T11:26:22.531Z,8.27
2023-05-21T11:29:04.657Z,9.57
2023-05-21T11:31:39.564Z,8.57
2023-05-21T11:34:13.801Z,9.25
2023-05-21T11:36:44.461Z,8.82
2023-05-21T11:39:17.709Z,9.25
2023-05-21T11:42:04.520Z,9.25
2023-05-21T11:44:44.642Z,9.05
2023-05-21T11:47:13.465Z,9.23
2023-05-21T11:49:40.130Z,9.15
2023-05-21T11:52:08.871Z,9.75
2023-05-21T11:54:48.687Z,10.30
2023-05-21T11:57:17.262Z,9.77
2023-05-21T11:59:53.583Z,9.45
2023-05-21T12:02:22.235Z,9.38
2023-05-21T12:04:52.012Z,9.50
2023-05-21T12:07:20.299Z,9.07
2023-05-21T12:09:49.316Z,9.75
2023-05-21T12:12:21.438Z,9.27
2023-05-21T12:14:53.193Z,9.63
2023-05-21T12:17:23.870Z,8.50
2023-05-21T12:20:01.759Z,10.00
2023-05-21T12:22:29.820Z,9.38
2023-05-21T12:24:58.319Z,10.05
2023-05-21T12:27:25.208Z,8.77
2023-05-21T12:29:53.110Z,9.77
2023-05-21T12:32:22.110Z,10.05
2023-05-21T12:34:54.699Z,9.95
2023-05-21T12:37:32.577Z,10.43
2023-05-21T12:40:01.283Z,10.07
2023-05-21T12:42:35.605Z,10.18
2023-05-21T12:45:11.899Z,9.90
2023-05-21T12:47:38.689Z,10.02
2023-05-21T12:50:09.476Z,10.43
2023-05-21T12:52:36.211Z,9.73
2023-05-21T12:55:04.307Z,10.23
2023-05-21T12:57:40.740Z,9.70
2023-05-21T13:00:11.327Z,10.05
2023-05-21T13:02:42.691Z,10.40
2023-05-21T13:05:17.206Z,9.60
2023-05-21T13:07:46.912Z,10.38
2023-05-21T13:10:16.863Z,10.80
2023-05-21T13:12:44.632Z,9.65
2023-05-21T13:15:11.753Z,9.30
2023-05-21T13:17:41.347Z,9.38
2023-05-21T13:20:12.777Z,9.70
2023-05-21T13:22:46.587Z,9.38
2023-05-21T13:25:25.113Z,10.02
2023-05-21T13:27:53.010Z,9.65
2023-05-21T13:30:20.904Z,9.40
2023-05-21T13:32:48.876Z,9.18
2023-05-21T13:35:16.631Z,9.57
2023-05-21T13:37:43.604Z,10.02
2023-05-21T13:40:11.900Z,8.77
2023-05-21T13:42:39.173Z,9.82
2023-05-21T13:45:10.462Z,8.88
2023-05-21T13:47:39.988Z,9.15
2023-05-21T13:50:08.327Z,8.25
2023-05-21T13:52:35.293Z,8.27
2023-05-21T13:55:02.143Z,9.07
2023-05-21T13:57:30.850Z,8.88
2023-05-21T13:59:58.397Z,8.50
2023-05-21T14:02:25.605Z,8.55
2023-05-21T14:04:52.516Z,9.18
2023-05-21T14:07:19.230Z,8.57
2023-05-21T14:09:47.586Z,8.63
2023-05-21T14:12:14.316Z,7.70
2023-05-21T14:14:42.007Z,8.10
2023-05-21T14:17:08.755Z,8.05
2023-05-21T14:19:35.778Z,8.60
2023-05-21T14:22:02.521Z,7.75
2023-05-21T14:24:29.220Z,7.43
2023-05-21T14:26:55.856Z,8.18
2023-05-21T14:29:22.481Z,7.70
2023-05-21T14:31:49.276Z,8.18
2023-05-21T14:34:16.018Z,7.78
2023-05-21T14:36:42.693Z,7.20
2023-05-21T14:39:09.338Z,7.93
2023-05-21T14:41:39.522Z,7.70
2023-05-21T14:44:06.197Z,8.05
2023-05-21T14:46:33.103Z,7.63
2023-05-21T14:49:00.640Z,7.28
2023-05-21T14:51:27.465Z,7.20
2023-05-21T14:53:54.257Z,7.93
2023-05-21T14:56:21.967Z,8.15
2023-05-21T14:58:48.932Z,7.63
2023-05-21T15:01:15.815Z,8.00
2023-05-21T15:03:42.670Z,8.15
2023-05-21T15:06:09.518Z,7.30
2023-05-21T15:08:36.242Z,8.07
2023-05-21T15:11:02.908Z,8.18
2023-05-21T15:13:29.598Z,8.43
2023-05-21T15:15:56.379Z,8.15
2023-05-21T15:18:24.712Z,7.85
2023-05-21T15:20:51.677Z,8.18
2023-05-21T15:23:18.726Z,7.97
2023-05-21T15:25:45.953Z,7.68
2023-05-21T15:28:12.916Z,7.63
2023-05-21T15:30:40.292Z,8.05
2023-05-21T15:33:07.004Z,8.32
2023-05-21T15:35:35.543Z,7.65
2023-05-21T15:38:02.778Z,8.07
2023-05-21T15:40:29.588Z,8.18
2023-05-21T15:42:56.278Z,8.25
2023-05-21T15:45:22.914Z,7.97
2023-05-21T15:47:49.601Z,8.07
2023-05-21T15:50:16.462Z,7.32
2023-05-21T15:52:43.222Z,7.95
2023-05-21T15:55:10.188Z,7.47
2023-05-21T15:57:36.996Z,7.63
2023-05-21T16:00:05.441Z,7.65
2023-05-21T16:02:35.601Z,7.38
2023-05-21T16:05:02.426Z,7.97
2023-05-21T16:07:29.108Z,7.70
2023-05-21T16:09:55.788Z,7.88
2023-05-21T16:12:22.618Z,8.27
2023-05-21T16:14:52.073Z,8.05
2023-05-21T16:17:21.717Z,7.85
2023-05-21T16:19:48.439Z,7.72
2023-05-21T16:22:15.234Z,7.85
2023-05-21T16:24:41.896Z,7.50
2023-05-21T16:27:08.579Z,8.27
2023-05-21T16:29:35.319Z,7.72
2023-05-21T16:32:02.152Z,8.00
2023-05-21T16:34:28.868Z,7.20
2023-05-21T16:36:55.554Z,7.70
2023-05-21T16:39:22.338Z,7.78
2023-05-21T16:41:49.102Z,8.18
2023-05-21T16:44:15.755Z,7.93
2023-05-21T16:46:42.725Z,7.80
2023-05-21T16:49:09.541Z,7.68
2023-05-21T16:51:36.328Z,7.57
2023-05-21T16:54:04.818Z,7.53
2023-05-21T16:56:31.644Z,7.45
2023-05-21T16:58:58.526Z,7.95
2023-05-21T17:01:25.194Z,7.82
2023-05-21T17:03:54.359Z,8.18
2023-05-21T17:06:21.246Z,7.57
2023-05-21T17:08:47.928Z,7.60
2023-05-21T17:11:14.709Z,8.10
2023-05-21T17:13:41.874Z,8.60
2023-05-21T17:16:08.580Z,8.00
2023-05-21T17:18:35.372Z,7.38
2023-05-21T17:21:02.100Z,7.47
2023-05-21T17:23:28.764Z,8.65
2023-05-21T17:25:55.538Z,8.10
2023-05-21T17:28:22.264Z,8.30
2023-05-21T17:30:49.786Z,8.18
2023-05-21T17:33:16.894Z,7.68
2023-05-21T17:35:43.998Z,8.18
2023-05-21T17:38:10.818Z,8.57
2023-05-21T17:40:37.577Z,7.28
2023-05-21T17:43:05.186Z,7.47
2023-05-21T17:45:32.094Z,7.43
2023-05-21T17:48:00.424Z,8.23
2023-05-21T17:50:27.844Z,7.90
2023-05-21T17:52:54.580Z,8.07
2023-05-21T17:55:21.268Z,7.75
2023-05-21T17:57:47.970Z,7.65
2023-05-21T18:00:14.897Z,8.05
2023-05-21T18:02:41.571Z,7.80
2023-05-21T18:05:08.560Z,7.80
2023-05-21T18:07:35.290Z,8.77
2023-05-21T18:10:01.928Z,8.00
2023-05-21T18:12:28.661Z,8.38
2023-05-21T18:14:55.356Z,8.90
2023-05-21T18:17:22.057Z,8.80
2023-05-21T18:19:48.878Z,8.52
2023-05-21T18:22:15.595Z,8.15
2023-05-21T18:24:42.710Z,8.18
2023-05-21T18:27:09.481Z,9.40
2023-05-21T18:29:36.760Z,8.70
2023-05-21T18:32:04.145Z,8.85
2023-05-21T18:34:31.011Z,8.88
2023-05-21T18:36:58.778Z,9.10
2023-05-21T18:39:27.051Z,8.85
2023-05-21T18:42:11.588Z,11.10
2023-05-21T18:44:39.938Z,9.27
2023-05-21T18:47:07.751Z,8.88
2023-05-21T18:49:36.095Z,9.35
2023-05-21T18:52:04.043Z,9.75
2023-05-21T18:54:31.143Z,8.95
2023-05-21T18:57:00.236Z,9.40
2023-05-21T18:59:28.674Z,9.60
2023-05-21T19:01:55.492Z,9.93
2023-05-21T19:04:23.848Z,10.32
2023-05-21T19:06:52.564Z,9.65
2023-05-21T19:09:19.236Z,9.52
2023-05-21T19:11:46.026Z,10.15
2023-05-21T19:14:12.795Z,9.80
2023-05-21T19:16:39.559Z,9.98
2023-05-21T19:19:06.350Z,10.10
2023-05-21T19:21:33.568Z,8.57
2023-05-21T19:24:05.895Z,9.15
2023-05-21T19:26:32.928Z,9.35
2023-05-21T19:28:59.673Z,9.65
2023-05-21T19:31:26.468Z,9.43
2023-05-21T19:33:53.386Z,9.93
2023-05-21T19:36:21.219Z,9.40
2023-05-21T19:38:49.136Z,8.77
2023-05-21T19:41:16.960Z,9.63
2023-05-21T19:43:44.424Z,9.88
2023-05-21T19:46:11.348Z,9.75
2023-05-21T19:48:38.210Z,9.73
2023-05-21T19:51:05.130Z,9.63
2023-05-21T19:53:31.857Z,9.50
2023-05-21T19:55:58.616Z,9.77
2023-05-21T19:58:26.990Z,10.32
2023-05-21T20:00:58.575Z,10.27
2023-05-21T20:03:26.868Z,9.68
2023-05-21T20:05:54.240Z,9.10
2023-05-21T20:08:21.358Z,9.27
2023-05-21T20:10:50.503Z,9.90
2023-05-21T20:13:18.646Z,9.75
2023-05-21T20:15:45.607Z,8.95
2023-05-21T20:18:12.932Z,9.13
2023-05-21T20:20:41.283Z,8.68
2023-05-21T20:23:08.881Z,9.98
2023-05-21T20:25:35.828Z,9.15
2023-05-21T20:28:03.329Z,9.10
2023-05-21T20:30:34.916Z,9.50
2023-05-21T20:33:02.943Z,9.02
2023-05-21T20:35:30.197Z,9.27
2023-05-21T20:37:57.016Z,8.52
2023-05-21T20:40:23.698Z,8.90
2023-05-21T20:42:53.443Z,9.55
2023-05-21T20:45:21.066Z,9.75
2023-05-21T20:47:48.272Z,9.65
2023-05-21T20:50:17.516Z,9.30
2023-05-21T20:52:47.004Z,9.77
2023-05-21T20:55:14.909Z,9.32
2023-05-21T20:57:42.152Z,9.30
2023-05-21T21:00:11.871Z,8.60
2023-05-21T21:02:39.130Z,8.93
2023-05-21T21:05:06.686Z,8.80
2023-05-21T21:07:34.154Z,9.15
2023-05-21T21:10:01.405Z,8.98
2023-05-21T21:12:28.196Z,9.38
2023-05-21T21:14:55.012Z,9.27
2023-05-21T21:17:23.455Z,8.95
2023-05-21T21:19:50.317Z,9.48
2023-05-21T21:22:18.188Z,10.40
2023-05-21T21:24:45.620Z,10.27
2023-05-21T21:27:12.419Z,11.35
2023-05-21T21:29:39.183Z,10.20
2023-05-21T21:32:06.463Z,10.25
2023-05-21T21:34:33.141Z,10.55
2023-05-21T21:36:59.848Z,10.13
2023-05-21T21:39:28.989Z,9.95
2023-05-21T21:41:55.834Z,10.43
2023-05-21T21:44:22.569Z,10.13
2023-05-21T21:46:49.446Z,10.60
2023-05-21T21:49:18.569Z,10.07
2023-05-21T21:51:45.616Z,10.50
2023-05-21T21:54:12.371Z,10.63
2023-05-21T21:56:39.182Z,10.38
2023-05-21T21:59:06.015Z,10.38
2023-05-21T22:01:33.163Z,9.82
2023-05-21T22:03:59.933Z,10.38
2023-05-21T22:06:27.699Z,10.10
2023-05-21T22:08:55.027Z,10.15
2023-05-21T22:11:21.967Z,10.15
2023-05-21T22:13:48.867Z,10.60
2023-05-21T22:16:15.658Z,10.93
2023-05-21T22:18:42.457Z,10.38
2023-05-21T22:21:10.596Z,10.02
2023-05-21T22:23:38.514Z,10.25
2023-05-21T22:26:05.862Z,10.32
2023-05-21T22:28:32.822Z,10.35
2023-05-21T22:30:59.610Z,9.63
2023-05-21T22:33:26.837Z,10.15
2023-05-21T22:35:54.467Z,10.30
2023-05-21T22:38:21.511Z,9.90
2023-05-21T22:40:48.425Z,10.27
2023-05-21T22:43:15.086Z,10.02
2023-05-21T22:45:42.192Z,10.52
2023-05-21T22:48:09.433Z,10.35
2023-05-21T22:50:38.238Z,10.48
2023-05-21T22:53:05.753Z,9.90
2023-05-21T22:55:32.453Z,10.75
2023-05-21T22:57:59.198Z,9.52
2023-05-21T23:00:26.398Z,10.32
2023-05-21T23:02:54.482Z,10.07
2023-05-21T23:05:21.754Z,10.80
2023-05-21T23:07:48.488Z,10.40
2023-05-21T23:10:15.335Z,10.63
2023-05-21T23:12:42.111Z,9.93
2023-05-21T23:15:09.998Z,10.27
2023-05-21T23:17:38.041Z,10.98
2023-05-21T23:20:08.907Z,10.90
2023-05-21T23:22:35.834Z,10.25
2023-05-21T23:25:02.752Z,9.57
2023-05-21T23:27:29.593Z,9.32
2023-05-21T23:29:56.420Z,10.05
2023-05-21T23:32:23.642Z,9.93
2023-05-21T23:34:50.712Z,9.55
2023-05-21T23:37:17.655Z,9.63
2023-05-21T23:39:48.168Z,9.25
2023-05-21T23:42:16.286Z,9.80
2023-05-21T23:44:43.070Z,9.73
2023-05-21T23:47:09.994Z,9.65
2023-05-21T23:49:36.739Z,9.00
2023-05-21T23:52:03.659Z,9.43
2023-05-21T23:54:30.740Z,9.48
2023-05-21T23:56:57.564Z,9.57
2023-05-21T23:59:24.299Z,8.98
